sensor_id;sensor_type;location;lat;lon;timestamp;temperature;humidity
74294;DHT22;64044;59.904;10.738;2023-03-14T00:00:48;1.90;64.40
74294;DHT22;64044;59.904;10.738;2023-03-14T00:03:14;1.90;64.50
74294;DHT22;64044;59.904;10.738;2023-03-14T00:05:40;1.90;64.70
74294;DHT22;64044;59.904;10.738;2023-03-14T00:08:05;1.80;64.30
74294;DHT22;64044;59.904;10.738;2023-03-14T00:10:31;1.80;65.50
74294;DHT22;64044;59.904;10.738;2023-03-14T00:12:57;1.80;66.00
74294;DHT22;64044;59.904;10.738;2023-03-14T00:15:22;1.80;66.50
74294;DHT22;64044;59.904;10.738;2023-03-14T00:17:48;1.80;66.70
74294;DHT22;64044;59.904;10.738;2023-03-14T00:20:39;1.80;66.10
74294;DHT22;64044;59.904;10.738;2023-03-14T00:23:06;1.80;66.10
74294;DHT22;64044;59.904;10.738;2023-03-14T00:25:32;1.80;65.40
74294;DHT22;64044;59.904;10.738;2023-03-14T00:27:58;1.80;65.10
74294;DHT22;64044;59.904;10.738;2023-03-14T00:30:23;1.80;64.70
74294;DHT22;64044;59.904;10.738;2023-03-14T00:32:49;1.80;64.40
74294;DHT22;64044;59.904;10.738;2023-03-14T00:35:15;1.80;64.50
74294;DHT22;64044;59.904;10.738;2023-03-14T00:37:41;1.80;64.80
74294;DHT22;64044;59.904;10.738;2023-03-14T00:40:08;1.80;65.20
74294;DHT22;64044;59.904;10.738;2023-03-14T00:42:34;1.80;65.20
74294;DHT22;64044;59.904;10.738;2023-03-14T00:45:00;1.80;65.40
74294;DHT22;64044;59.904;10.738;2023-03-14T00:47:25;1.80;65.50
74294;DHT22;64044;59.904;10.738;2023-03-14T00:49:51;1.80;66.10
74294;DHT22;64044;59.904;10.738;2023-03-14T00:52:17;1.80;66.00
74294;DHT22;64044;59.904;10.738;2023-03-14T00:54:43;1.80;65.80
74294;DHT22;64044;59.904;10.738;2023-03-14T00:57:08;1.80;66.10
74294;DHT22;64044;59.904;10.738;2023-03-14T00:59:34;1.70;65.90
74294;DHT22;64044;59.904;10.738;2023-03-14T01:02:00;1.80;65.70
74294;DHT22;64044;59.904;10.738;2023-03-14T01:04:26;1.70;65.60
74294;DHT22;64044;59.904;10.738;2023-03-14T01:06:52;1.70;65.40
74294;DHT22;64044;59.904;10.738;2023-03-14T01:09:18;1.70;65.30
74294;DHT22;64044;59.904;10.738;2023-03-14T01:11:43;1.70;65.30
74294;DHT22;64044;59.904;10.738;2023-03-14T01:14:12;1.60;65.30
74294;DHT22;64044;59.904;10.738;2023-03-14T01:16:38;1.60;65.50
74294;DHT22;64044;59.904;10.738;2023-03-14T01:19:04;1.60;65.60
74294;DHT22;64044;59.904;10.738;2023-03-14T01:21:32;1.60;65.70
74294;DHT22;64044;59.904;10.738;2023-03-14T01:23:59;1.60;65.70
74294;DHT22;64044;59.904;10.738;2023-03-14T01:26:27;1.50;65.70
74294;DHT22;64044;59.904;10.738;2023-03-14T01:28:55;1.60;66.00
74294;DHT22;64044;59.904;10.738;2023-03-14T01:31:21;1.60;66.50
74294;DHT22;64044;59.904;10.738;2023-03-14T01:33:47;1.60;66.30
74294;DHT22;64044;59.904;10.738;2023-03-14T01:36:13;1.50;66.40
74294;DHT22;64044;59.904;10.738;2023-03-14T01:38:40;1.60;66.10
74294;DHT22;64044;59.904;10.738;2023-03-14T01:41:07;1.50;65.90
74294;DHT22;64044;59.904;10.738;2023-03-14T01:43:33;1.50;66.10
74294;DHT22;64044;59.904;10.738;2023-03-14T01:48:40;1.50;65.80
74294;DHT22;64044;59.904;10.738;2023-03-14T01:51:11;1.50;65.70
74294;DHT22;64044;59.904;10.738;2023-03-14T01:53:38;1.50;65.80
74294;DHT22;64044;59.904;10.738;2023-03-14T01:56:06;1.50;65.70
74294;DHT22;64044;59.904;10.738;2023-03-14T01:58:33;1.40;65.60
74294;DHT22;64044;59.904;10.738;2023-03-14T02:01:01;1.40;65.50
74294;DHT22;64044;59.904;10.738;2023-03-14T02:03:29;1.40;65.50
74294;DHT22;64044;59.904;10.738;2023-03-14T02:05:57;1.40;65.40
74294;DHT22;64044;59.904;10.738;2023-03-14T02:08:27;1.30;65.00
74294;DHT22;64044;59.904;10.738;2023-03-14T02:10:53;1.30;65.00
74294;DHT22;64044;59.904;10.738;2023-03-14T02:13:20;1.30;65.00
74294;DHT22;64044;59.904;10.738;2023-03-14T02:15:47;1.20;65.10
74294;DHT22;64044;59.904;10.738;2023-03-14T02:18:13;1.20;65.10
74294;DHT22;64044;59.904;10.738;2023-03-14T02:20:53;1.20;65.20
74294;DHT22;64044;59.904;10.738;2023-03-14T02:28:58;1.10;65.40
74294;DHT22;64044;59.904;10.738;2023-03-14T02:31:24;1.00;65.30
74294;DHT22;64044;59.904;10.738;2023-03-14T02:33:51;1.00;65.40
74294;DHT22;64044;59.904;10.738;2023-03-14T02:36:17;1.00;65.60
74294;DHT22;64044;59.904;10.738;2023-03-14T02:41:30;0.90;66.10
74294;DHT22;64044;59.904;10.738;2023-03-14T02:43:55;0.90;66.30
74294;DHT22;64044;59.904;10.738;2023-03-14T02:46:21;0.90;66.60
74294;DHT22;64044;59.904;10.738;2023-03-14T02:49:02;1.00;67.30
74294;DHT22;64044;59.904;10.738;2023-03-14T02:51:29;1.00;68.00
74294;DHT22;64044;59.904;10.738;2023-03-14T02:53:55;1.00;67.70
74294;DHT22;64044;59.904;10.738;2023-03-14T02:56:20;1.10;67.50
74294;DHT22;64044;59.904;10.738;2023-03-14T02:58:46;1.10;67.50
74294;DHT22;64044;59.904;10.738;2023-03-14T03:01:12;1.10;67.40
74294;DHT22;64044;59.904;10.738;2023-03-14T03:03:37;1.20;67.40
74294;DHT22;64044;59.904;10.738;2023-03-14T03:06:03;1.20;67.20
74294;DHT22;64044;59.904;10.738;2023-03-14T03:08:29;1.20;67.00
74294;DHT22;64044;59.904;10.738;2023-03-14T03:10:56;1.20;66.80
74294;DHT22;64044;59.904;10.738;2023-03-14T03:13:22;1.20;66.70
74294;DHT22;64044;59.904;10.738;2023-03-14T03:15:48;1.20;66.70
74294;DHT22;64044;59.904;10.738;2023-03-14T03:18:14;1.30;66.70
74294;DHT22;64044;59.904;10.738;2023-03-14T03:20:39;1.20;66.50
74294;DHT22;64044;59.904;10.738;2023-03-14T03:23:05;1.30;66.20
74294;DHT22;64044;59.904;10.738;2023-03-14T03:25:31;1.20;66.00
74294;DHT22;64044;59.904;10.738;2023-03-14T03:27:57;1.20;65.80
74294;DHT22;64044;59.904;10.738;2023-03-14T03:30:23;1.20;65.70
74294;DHT22;64044;59.904;10.738;2023-03-14T03:32:49;1.20;65.60
74294;DHT22;64044;59.904;10.738;2023-03-14T03:35:15;1.20;65.60
74294;DHT22;64044;59.904;10.738;2023-03-14T03:37:40;1.20;65.60
74294;DHT22;64044;59.904;10.738;2023-03-14T03:40:07;1.20;65.60
74294;DHT22;64044;59.904;10.738;2023-03-14T03:42:34;1.20;65.60
74294;DHT22;64044;59.904;10.738;2023-03-14T03:45:00;1.20;65.60
74294;DHT22;64044;59.904;10.738;2023-03-14T03:47:26;1.20;65.60
74294;DHT22;64044;59.904;10.738;2023-03-14T03:49:52;1.20;65.50
74294;DHT22;64044;59.904;10.738;2023-03-14T03:52:18;1.20;65.50
74294;DHT22;64044;59.904;10.738;2023-03-14T03:54:44;1.20;65.40
74294;DHT22;64044;59.904;10.738;2023-03-14T03:57:10;1.20;65.50
74294;DHT22;64044;59.904;10.738;2023-03-14T03:59:35;1.20;65.70
74294;DHT22;64044;59.904;10.738;2023-03-14T04:02:01;1.20;65.80
74294;DHT22;64044;59.904;10.738;2023-03-14T04:04:27;1.30;65.80
74294;DHT22;64044;59.904;10.738;2023-03-14T04:06:53;1.30;65.80
74294;DHT22;64044;59.904;10.738;2023-03-14T04:09:18;1.30;65.90
74294;DHT22;64044;59.904;10.738;2023-03-14T04:11:44;1.30;66.00
74294;DHT22;64044;59.904;10.738;2023-03-14T04:14:10;1.40;66.00
74294;DHT22;64044;59.904;10.738;2023-03-14T04:16:36;1.40;66.00
74294;DHT22;64044;59.904;10.738;2023-03-14T04:19:02;1.40;66.00
74294;DHT22;64044;59.904;10.738;2023-03-14T04:21:28;1.40;65.80
74294;DHT22;64044;59.904;10.738;2023-03-14T04:23:54;1.50;65.70
74294;DHT22;64044;59.904;10.738;2023-03-14T04:26:19;1.50;65.70
74294;DHT22;64044;59.904;10.738;2023-03-14T04:28:45;1.50;65.70
74294;DHT22;64044;59.904;10.738;2023-03-14T04:31:17;1.60;65.70
74294;DHT22;64044;59.904;10.738;2023-03-14T04:33:44;1.50;66.50
74294;DHT22;64044;59.904;10.738;2023-03-14T04:36:10;1.60;65.80
74294;DHT22;64044;59.904;10.738;2023-03-14T04:38:36;1.60;65.80
74294;DHT22;64044;59.904;10.738;2023-03-14T04:41:02;1.60;65.80
74294;DHT22;64044;59.904;10.738;2023-03-14T04:43:28;1.60;65.70
74294;DHT22;64044;59.904;10.738;2023-03-14T04:45:54;1.60;65.60
74294;DHT22;64044;59.904;10.738;2023-03-14T04:48:20;1.70;65.60
74294;DHT22;64044;59.904;10.738;2023-03-14T04:50:49;1.70;65.50
74294;DHT22;64044;59.904;10.738;2023-03-14T04:53:16;1.70;65.50
74294;DHT22;64044;59.904;10.738;2023-03-14T04:55:42;1.70;65.40
74294;DHT22;64044;59.904;10.738;2023-03-14T04:58:08;1.70;65.30
74294;DHT22;64044;59.904;10.738;2023-03-14T05:00:34;1.70;65.30
74294;DHT22;64044;59.904;10.738;2023-03-14T05:02:59;1.70;65.40
74294;DHT22;64044;59.904;10.738;2023-03-14T05:05:25;1.70;65.10
74294;DHT22;64044;59.904;10.738;2023-03-14T05:07:51;1.70;65.10
74294;DHT22;64044;59.904;10.738;2023-03-14T05:10:17;1.80;65.10
74294;DHT22;64044;59.904;10.738;2023-03-14T05:12:42;1.80;65.00
74294;DHT22;64044;59.904;10.738;2023-03-14T05:15:09;1.80;65.00
74294;DHT22;64044;59.904;10.738;2023-03-14T05:17:34;1.80;64.80
74294;DHT22;64044;59.904;10.738;2023-03-14T05:20:01;1.80;64.80
74294;DHT22;64044;59.904;10.738;2023-03-14T05:22:27;1.80;64.80
74294;DHT22;64044;59.904;10.738;2023-03-14T05:24:52;1.80;64.80
74294;DHT22;64044;59.904;10.738;2023-03-14T05:27:22;1.80;64.70
74294;DHT22;64044;59.904;10.738;2023-03-14T05:29:48;1.80;64.70
74294;DHT22;64044;59.904;10.738;2023-03-14T05:32:14;1.80;64.70
74294;DHT22;64044;59.904;10.738;2023-03-14T05:34:39;1.80;64.70
74294;DHT22;64044;59.904;10.738;2023-03-14T05:37:05;1.80;64.70
74294;DHT22;64044;59.904;10.738;2023-03-14T05:39:31;1.80;64.60
74294;DHT22;64044;59.904;10.738;2023-03-14T05:41:56;1.90;64.80
74294;DHT22;64044;59.904;10.738;2023-03-14T05:44:22;1.90;64.70
74294;DHT22;64044;59.904;10.738;2023-03-14T05:46:48;1.90;64.70
74294;DHT22;64044;59.904;10.738;2023-03-14T05:49:14;1.90;64.60
74294;DHT22;64044;59.904;10.738;2023-03-14T05:51:39;1.90;64.50
74294;DHT22;64044;59.904;10.738;2023-03-14T05:54:05;1.90;64.50
74294;DHT22;64044;59.904;10.738;2023-03-14T05:56:32;1.90;64.60
74294;DHT22;64044;59.904;10.738;2023-03-14T05:58:58;1.90;64.50
74294;DHT22;64044;59.904;10.738;2023-03-14T06:01:24;1.90;64.50
74294;DHT22;64044;59.904;10.738;2023-03-14T06:03:49;1.90;64.50
74294;DHT22;64044;59.904;10.738;2023-03-14T06:06:15;1.90;64.40
74294;DHT22;64044;59.904;10.738;2023-03-14T06:08:42;1.90;64.40
74294;DHT22;64044;59.904;10.738;2023-03-14T06:11:07;2.00;64.40
74294;DHT22;64044;59.904;10.738;2023-03-14T06:13:34;2.00;64.40
74294;DHT22;64044;59.904;10.738;2023-03-14T06:16:00;2.00;64.50
74294;DHT22;64044;59.904;10.738;2023-03-14T06:18:25;2.00;64.50
74294;DHT22;64044;59.904;10.738;2023-03-14T06:20:55;2.00;64.60
74294;DHT22;64044;59.904;10.738;2023-03-14T06:23:21;2.00;64.60
74294;DHT22;64044;59.904;10.738;2023-03-14T06:25:47;2.10;64.50
74294;DHT22;64044;59.904;10.738;2023-03-14T06:28:13;2.10;64.50
74294;DHT22;64044;59.904;10.738;2023-03-14T06:30:38;2.10;64.40
74294;DHT22;64044;59.904;10.738;2023-03-14T06:33:04;2.10;64.30
74294;DHT22;64044;59.904;10.738;2023-03-14T06:35:30;2.10;64.20
74294;DHT22;64044;59.904;10.738;2023-03-14T06:37:55;2.10;65.00
74294;DHT22;64044;59.904;10.738;2023-03-14T06:40:22;2.20;64.40
74294;DHT22;64044;59.904;10.738;2023-03-14T06:42:48;2.20;64.30
74294;DHT22;64044;59.904;10.738;2023-03-14T06:45:14;2.20;64.30
74294;DHT22;64044;59.904;10.738;2023-03-14T06:47:39;2.20;64.50
74294;DHT22;64044;59.904;10.738;2023-03-14T06:50:06;2.20;64.50
74294;DHT22;64044;59.904;10.738;2023-03-14T06:52:32;2.30;64.70
74294;DHT22;64044;59.904;10.738;2023-03-14T06:54:58;2.30;64.80
74294;DHT22;64044;59.904;10.738;2023-03-14T06:57:24;2.30;64.90
74294;DHT22;64044;59.904;10.738;2023-03-14T06:59:50;2.30;64.90
74294;DHT22;64044;59.904;10.738;2023-03-14T07:02:15;2.40;65.10
74294;DHT22;64044;59.904;10.738;2023-03-14T07:04:41;2.40;65.20
74294;DHT22;64044;59.904;10.738;2023-03-14T07:07:07;2.50;65.20
74294;DHT22;64044;59.904;10.738;2023-03-14T07:09:33;2.50;65.20
74294;DHT22;64044;59.904;10.738;2023-03-14T07:11:59;2.50;65.30
74294;DHT22;64044;59.904;10.738;2023-03-14T07:14:25;2.60;65.30
74294;DHT22;64044;59.904;10.738;2023-03-14T07:16:50;2.60;65.20
74294;DHT22;64044;59.904;10.738;2023-03-14T07:19:16;2.60;65.20
74294;DHT22;64044;59.904;10.738;2023-03-14T07:21:42;2.70;65.30
74294;DHT22;64044;59.904;10.738;2023-03-14T07:24:07;2.70;65.30
74294;DHT22;64044;59.904;10.738;2023-03-14T07:26:33;2.80;65.30
74294;DHT22;64044;59.904;10.738;2023-03-14T07:28:59;2.80;65.30
74294;DHT22;64044;59.904;10.738;2023-03-14T07:31:25;2.90;65.40
74294;DHT22;64044;59.904;10.738;2023-03-14T07:33:50;2.90;65.50
74294;DHT22;64044;59.904;10.738;2023-03-14T07:36:16;3.00;65.30
74294;DHT22;64044;59.904;10.738;2023-03-14T07:38:42;3.10;65.30
74294;DHT22;64044;59.904;10.738;2023-03-14T07:41:08;3.10;65.20
74294;DHT22;64044;59.904;10.738;2023-03-14T07:43:34;3.20;65.00
74294;DHT22;64044;59.904;10.738;2023-03-14T07:46:00;3.20;64.70
74294;DHT22;64044;59.904;10.738;2023-03-14T07:48:26;3.30;64.80
74294;DHT22;64044;59.904;10.738;2023-03-14T07:50:53;3.40;64.60
74294;DHT22;64044;59.904;10.738;2023-03-14T07:53:19;3.40;64.60
74294;DHT22;64044;59.904;10.738;2023-03-14T07:55:45;3.40;64.60
74294;DHT22;64044;59.904;10.738;2023-03-14T07:58:12;3.50;64.60
74294;DHT22;64044;59.904;10.738;2023-03-14T08:00:37;3.50;65.10
74294;DHT22;64044;59.904;10.738;2023-03-14T08:03:03;3.60;64.20
74294;DHT22;64044;59.904;10.738;2023-03-14T08:05:29;3.70;64.30
74294;DHT22;64044;59.904;10.738;2023-03-14T08:07:55;3.80;64.30
74294;DHT22;64044;59.904;10.738;2023-03-14T08:10:21;3.80;64.00
74294;DHT22;64044;59.904;10.738;2023-03-14T08:12:49;3.90;64.00
74294;DHT22;64044;59.904;10.738;2023-03-14T08:15:14;4.00;63.90
74294;DHT22;64044;59.904;10.738;2023-03-14T08:17:40;4.00;63.80
74294;DHT22;64044;59.904;10.738;2023-03-14T08:20:06;4.10;63.90
74294;DHT22;64044;59.904;10.738;2023-03-14T08:22:33;4.20;63.80
74294;DHT22;64044;59.904;10.738;2023-03-14T08:24:59;4.20;63.70
74294;DHT22;64044;59.904;10.738;2023-03-14T08:27:24;4.30;63.80
74294;DHT22;64044;59.904;10.738;2023-03-14T08:29:50;4.40;63.90
74294;DHT22;64044;59.904;10.738;2023-03-14T08:32:16;4.40;63.80
74294;DHT22;64044;59.904;10.738;2023-03-14T08:34:41;4.50;63.60
74294;DHT22;64044;59.904;10.738;2023-03-14T08:37:07;4.60;64.20
74294;DHT22;64044;59.904;10.738;2023-03-14T08:39:33;4.60;63.20
74294;DHT22;64044;59.904;10.738;2023-03-14T08:41:59;4.70;63.00
74294;DHT22;64044;59.904;10.738;2023-03-14T08:44:29;4.80;63.00
74294;DHT22;64044;59.904;10.738;2023-03-14T08:46:55;4.90;62.90
74294;DHT22;64044;59.904;10.738;2023-03-14T08:49:20;4.90;62.70
74294;DHT22;64044;59.904;10.738;2023-03-14T08:51:46;5.00;62.50
74294;DHT22;64044;59.904;10.738;2023-03-14T08:54:12;5.10;62.50
74294;DHT22;64044;59.904;10.738;2023-03-14T08:56:38;5.10;62.50
74294;DHT22;64044;59.904;10.738;2023-03-14T08:59:04;5.20;62.50
74294;DHT22;64044;59.904;10.738;2023-03-14T09:01:30;5.20;62.40
74294;DHT22;64044;59.904;10.738;2023-03-14T09:03:55;5.30;62.20
74294;DHT22;64044;59.904;10.738;2023-03-14T09:06:21;5.40;61.60
74294;DHT22;64044;59.904;10.738;2023-03-14T09:08:47;5.50;61.50
74294;DHT22;64044;59.904;10.738;2023-03-14T09:11:13;5.60;61.20
74294;DHT22;64044;59.904;10.738;2023-03-14T09:13:39;5.60;60.80
74294;DHT22;64044;59.904;10.738;2023-03-14T09:16:06;5.70;59.70
74294;DHT22;64044;59.904;10.738;2023-03-14T09:18:32;5.70;59.40
74294;DHT22;64044;59.904;10.738;2023-03-14T09:20:58;5.80;59.00
74294;DHT22;64044;59.904;10.738;2023-03-14T09:23:24;5.90;58.50
74294;DHT22;64044;59.904;10.738;2023-03-14T09:25:57;5.90;58.20
74294;DHT22;64044;59.904;10.738;2023-03-14T09:28:23;5.90;57.70
74294;DHT22;64044;59.904;10.738;2023-03-14T09:30:48;6.00;57.10
74294;DHT22;64044;59.904;10.738;2023-03-14T09:33:15;6.00;56.60
74294;DHT22;64044;59.904;10.738;2023-03-14T09:35:41;6.10;56.50
74294;DHT22;64044;59.904;10.738;2023-03-14T09:38:07;6.10;56.20
74294;DHT22;64044;59.904;10.738;2023-03-14T09:40:37;6.20;56.10
74294;DHT22;64044;59.904;10.738;2023-03-14T09:43:03;6.20;56.20
74294;DHT22;64044;59.904;10.738;2023-03-14T09:45:34;6.30;56.30
74294;DHT22;64044;59.904;10.738;2023-03-14T09:48:02;6.40;56.00
74294;DHT22;64044;59.904;10.738;2023-03-14T09:50:36;6.50;56.00
74294;DHT22;64044;59.904;10.738;2023-03-14T09:53:07;6.50;55.70
74294;DHT22;64044;59.904;10.738;2023-03-14T09:55:35;6.60;55.80
74294;DHT22;64044;59.904;10.738;2023-03-14T09:58:09;6.70;55.70
74294;DHT22;64044;59.904;10.738;2023-03-14T10:00:36;6.70;56.10
74294;DHT22;64044;59.904;10.738;2023-03-14T10:03:20;6.80;55.50
74294;DHT22;64044;59.904;10.738;2023-03-14T10:05:46;6.90;55.10
74294;DHT22;64044;59.904;10.738;2023-03-14T10:08:13;7.00;55.50
74294;DHT22;64044;59.904;10.738;2023-03-14T10:10:39;7.10;55.00
74294;DHT22;64044;59.904;10.738;2023-03-14T10:13:31;7.10;54.90
74294;DHT22;64044;59.904;10.738;2023-03-14T10:16:03;7.20;54.10
74294;DHT22;64044;59.904;10.738;2023-03-14T10:18:30;7.30;54.30
74294;DHT22;64044;59.904;10.738;2023-03-14T10:21:25;7.40;54.30
74294;DHT22;64044;59.904;10.738;2023-03-14T10:23:52;7.50;52.80
74294;DHT22;64044;59.904;10.738;2023-03-14T10:26:24;7.60;53.60
74294;DHT22;64044;59.904;10.738;2023-03-14T10:28:53;7.60;52.40
74294;DHT22;64044;59.904;10.738;2023-03-14T10:31:23;7.70;53.00
74294;DHT22;64044;59.904;10.738;2023-03-14T10:34:02;7.80;53.10
74294;DHT22;64044;59.904;10.738;2023-03-14T10:36:33;7.90;51.70
74294;DHT22;64044;59.904;10.738;2023-03-14T10:39:23;8.00;52.20
74294;DHT22;64044;59.904;10.738;2023-03-14T10:41:53;8.10;51.30
74294;DHT22;64044;59.904;10.738;2023-03-14T10:44:25;8.20;51.30
74294;DHT22;64044;59.904;10.738;2023-03-14T10:47:00;8.30;50.90
74294;DHT22;64044;59.904;10.738;2023-03-14T10:49:32;8.40;48.80
74294;DHT22;64044;59.904;10.738;2023-03-14T10:52:23;8.50;49.70
74294;DHT22;64044;59.904;10.738;2023-03-14T10:55:01;8.60;49.30
74294;DHT22;64044;59.904;10.738;2023-03-14T10:57:27;8.70;49.40
74294;DHT22;64044;59.904;10.738;2023-03-14T10:59:54;8.80;50.10
74294;DHT22;64044;59.904;10.738;2023-03-14T11:05:34;9.10;48.20
74294;DHT22;64044;59.904;10.738;2023-03-14T11:08:30;9.30;49.40
74294;DHT22;64044;59.904;10.738;2023-03-14T11:19:35;9.90;48.30
74294;DHT22;64044;59.904;10.738;2023-03-14T11:40:59;11.90;47.00
74294;DHT22;64044;59.904;10.738;2023-03-14T11:46:03;12.60;46.90
74294;DHT22;64044;59.904;10.738;2023-03-14T11:48:46;13.10;44.90
74294;DHT22;64044;59.904;10.738;2023-03-14T11:51:25;13.60;42.90
74294;DHT22;64044;59.904;10.738;2023-03-14T11:54:16;14.10;43.60
74294;DHT22;64044;59.904;10.738;2023-03-14T11:56:46;14.60;41.60
74294;DHT22;64044;59.904;10.738;2023-03-14T12:05:23;15.90;39.60
74294;DHT22;64044;59.904;10.738;2023-03-14T12:11:01;16.40;39.70
74294;DHT22;64044;59.904;10.738;2023-03-14T12:13:31;16.50;36.10
74294;DHT22;64044;59.904;10.738;2023-03-14T12:16:07;16.70;37.90
74294;DHT22;64044;59.904;10.738;2023-03-14T12:18:36;16.80;36.00
74294;DHT22;64044;59.904;10.738;2023-03-14T12:21:06;16.90;36.00
74294;DHT22;64044;59.904;10.738;2023-03-14T12:23:49;17.00;35.30
74294;DHT22;64044;59.904;10.738;2023-03-14T12:26:21;17.10;33.30
74294;DHT22;64044;59.904;10.738;2023-03-14T12:42:17;19.10;33.40
74294;DHT22;64044;59.904;10.738;2023-03-14T12:44:50;19.50;33.30
74294;DHT22;64044;59.904;10.738;2023-03-14T12:49:49;20.10;30.60
74294;DHT22;64044;59.904;10.738;2023-03-14T12:57:40;21.00;29.30
74294;DHT22;64044;59.904;10.738;2023-03-14T13:00:50;21.20;29.00
74294;DHT22;64044;59.904;10.738;2023-03-14T13:06:11;21.50;26.60
74294;DHT22;64044;59.904;10.738;2023-03-14T13:08:44;21.70;28.50
74294;DHT22;64044;59.904;10.738;2023-03-14T13:11:16;21.90;27.50
74294;DHT22;64044;59.904;10.738;2023-03-14T13:13:55;22.10;27.40
74294;DHT22;64044;59.904;10.738;2023-03-14T13:16:22;22.40;23.50
74294;DHT22;64044;59.904;10.738;2023-03-14T13:18:59;22.60;24.20
74294;DHT22;64044;59.904;10.738;2023-03-14T13:21:27;22.80;24.70
74294;DHT22;64044;59.904;10.738;2023-03-14T13:26:20;23.30;24.10
74294;DHT22;64044;59.904;10.738;2023-03-14T13:28:46;23.50;25.20
74294;DHT22;64044;59.904;10.738;2023-03-14T13:31:31;23.70;24.90
74294;DHT22;64044;59.904;10.738;2023-03-14T13:34:09;24.00;21.70
74294;DHT22;64044;59.904;10.738;2023-03-14T13:36:36;24.30;22.70
74294;DHT22;64044;59.904;10.738;2023-03-14T13:39:02;24.60;23.70
74294;DHT22;64044;59.904;10.738;2023-03-14T13:41:30;24.80;22.90
74294;DHT22;64044;59.904;10.738;2023-03-14T13:44:03;24.90;21.50
74294;DHT22;64044;59.904;10.738;2023-03-14T13:46:33;24.90;19.90
74294;DHT22;64044;59.904;10.738;2023-03-14T13:49:03;24.90;20.20
74294;DHT22;64044;59.904;10.738;2023-03-14T13:51:30;24.80;20.00
74294;DHT22;64044;59.904;10.738;2023-03-14T13:53:58;24.70;21.00
74294;DHT22;64044;59.904;10.738;2023-03-14T13:56:31;24.70;21.40
74294;DHT22;64044;59.904;10.738;2023-03-14T13:58:58;24.70;21.30
74294;DHT22;64044;59.904;10.738;2023-03-14T14:01:32;24.80;22.30
74294;DHT22;64044;59.904;10.738;2023-03-14T14:04:06;24.80;21.30
74294;DHT22;64044;59.904;10.738;2023-03-14T14:06:35;24.90;21.60
74294;DHT22;64044;59.904;10.738;2023-03-14T14:09:15;25.00;21.80
74294;DHT22;64044;59.904;10.738;2023-03-14T14:16:49;25.00;20.20
74294;DHT22;64044;59.904;10.738;2023-03-14T14:19:16;25.00;21.20
74294;DHT22;64044;59.904;10.738;2023-03-14T14:21:44;24.90;21.60
74294;DHT22;64044;59.904;10.738;2023-03-14T14:24:13;24.90;21.80
74294;DHT22;64044;59.904;10.738;2023-03-14T14:26:41;24.80;21.50
74294;DHT22;64044;59.904;10.738;2023-03-14T14:29:16;24.80;22.10
74294;DHT22;64044;59.904;10.738;2023-03-14T14:31:45;24.80;21.70
74294;DHT22;64044;59.904;10.738;2023-03-14T14:34:19;24.90;21.70
74294;DHT22;64044;59.904;10.738;2023-03-14T14:36:45;24.90;21.40
74294;DHT22;64044;59.904;10.738;2023-03-14T14:39:21;25.00;21.70
74294;DHT22;64044;59.904;10.738;2023-03-14T14:41:50;25.00;22.00
74294;DHT22;64044;59.904;10.738;2023-03-14T14:44:21;25.00;21.20
74294;DHT22;64044;59.904;10.738;2023-03-14T14:46:54;25.00;20.50
74294;DHT22;64044;59.904;10.738;2023-03-14T14:49:20;25.00;20.90
74294;DHT22;64044;59.904;10.738;2023-03-14T14:51:50;25.10;21.10
74294;DHT22;64044;59.904;10.738;2023-03-14T14:54:18;25.00;20.30
74294;DHT22;64044;59.904;10.738;2023-03-14T14:56:52;24.90;20.30
74294;DHT22;64044;59.904;10.738;2023-03-14T14:59:24;24.80;19.80
74294;DHT22;64044;59.904;10.738;2023-03-14T15:01:55;24.60;19.30
74294;DHT22;64044;59.904;10.738;2023-03-14T15:04:21;24.50;19.80
74294;DHT22;64044;59.904;10.738;2023-03-14T15:06:48;24.50;18.90
74294;DHT22;64044;59.904;10.738;2023-03-14T15:09:14;24.30;20.30
74294;DHT22;64044;59.904;10.738;2023-03-14T15:11:42;24.10;20.50
74294;DHT22;64044;59.904;10.738;2023-03-14T15:14:07;23.80;20.40
74294;DHT22;64044;59.904;10.738;2023-03-14T15:16:33;23.60;20.70
74294;DHT22;64044;59.904;10.738;2023-03-14T15:19:02;23.30;21.50
74294;DHT22;64044;59.904;10.738;2023-03-14T15:21:30;23.20;21.00
74294;DHT22;64044;59.904;10.738;2023-03-14T15:23:56;23.20;19.50
74294;DHT22;64044;59.904;10.738;2023-03-14T15:26:26;23.10;20.90
74294;DHT22;64044;59.904;10.738;2023-03-14T15:28:53;23.00;21.40
74294;DHT22;64044;59.904;10.738;2023-03-14T15:31:19;22.90;21.00
74294;DHT22;64044;59.904;10.738;2023-03-14T15:33:46;22.80;21.00
74294;DHT22;64044;59.904;10.738;2023-03-14T15:36:25;22.70;20.90
74294;DHT22;64044;59.904;10.738;2023-03-14T15:38:52;22.60;21.20
74294;DHT22;64044;59.904;10.738;2023-03-14T15:41:18;22.40;21.20
74294;DHT22;64044;59.904;10.738;2023-03-14T15:43:45;22.30;21.40
74294;DHT22;64044;59.904;10.738;2023-03-14T15:46:11;22.40;21.80
74294;DHT22;64044;59.904;10.738;2023-03-14T15:48:37;22.40;22.20
74294;DHT22;64044;59.904;10.738;2023-03-14T15:51:03;22.70;22.70
74294;DHT22;64044;59.904;10.738;2023-03-14T15:53:29;22.90;22.80
74294;DHT22;64044;59.904;10.738;2023-03-14T15:55:55;23.10;22.50
74294;DHT22;64044;59.904;10.738;2023-03-14T15:58:21;23.40;22.60
74294;DHT22;64044;59.904;10.738;2023-03-14T16:00:47;23.50;21.90
74294;DHT22;64044;59.904;10.738;2023-03-14T16:03:13;23.40;21.60
74294;DHT22;64044;59.904;10.738;2023-03-14T16:05:39;23.00;21.40
74294;DHT22;64044;59.904;10.738;2023-03-14T16:08:05;22.60;21.50
74294;DHT22;64044;59.904;10.738;2023-03-14T16:10:32;21.90;21.20
74294;DHT22;64044;59.904;10.738;2023-03-14T16:12:58;21.20;21.40
74294;DHT22;64044;59.904;10.738;2023-03-14T16:15:24;20.40;21.90
74294;DHT22;64044;59.904;10.738;2023-03-14T16:17:55;19.50;22.30
74294;DHT22;64044;59.904;10.738;2023-03-14T16:20:22;18.70;23.00
74294;DHT22;64044;59.904;10.738;2023-03-14T16:22:48;17.90;23.50
74294;DHT22;64044;59.904;10.738;2023-03-14T16:25:15;17.30;24.50
74294;DHT22;64044;59.904;10.738;2023-03-14T16:27:41;17.00;25.60
74294;DHT22;64044;59.904;10.738;2023-03-14T16:30:10;16.80;26.10
74294;DHT22;64044;59.904;10.738;2023-03-14T16:32:36;16.80;26.80
74294;DHT22;64044;59.904;10.738;2023-03-14T16:35:01;16.80;27.20
74294;DHT22;64044;59.904;10.738;2023-03-14T16:37:28;16.90;27.40
74294;DHT22;64044;59.904;10.738;2023-03-14T16:39:53;16.90;27.70
74294;DHT22;64044;59.904;10.738;2023-03-14T16:42:20;17.10;27.30
74294;DHT22;64044;59.904;10.738;2023-03-14T16:44:46;17.20;27.70
74294;DHT22;64044;59.904;10.738;2023-03-14T16:47:12;17.20;27.20
74294;DHT22;64044;59.904;10.738;2023-03-14T16:49:38;17.10;26.80
74294;DHT22;64044;59.904;10.738;2023-03-14T16:52:04;17.00;26.70
74294;DHT22;64044;59.904;10.738;2023-03-14T16:54:31;16.90;26.60
74294;DHT22;64044;59.904;10.738;2023-03-14T16:56:57;16.70;26.50